Date,TemperatureHighF,TemperatureAvgF,TemperatureLowF,DewpointHighF,DewpointAvgF,DewpointLowF,HumidityHigh,HumidityAvg,HumidityLow,PressureMaxIn,PressureMinIn,WindSpeedMaxMPH,WindSpeedAvgMPH,GustSpeedMaxMPH,PrecipitationSumIn
2013-1-1,67,40,29,50,36,29,99,89,43,30.33,30.19,4,1,4,0.01
2013-1-2,70,37,27,50,33,26,99,88,34,30.21,30.07,5,1,5,0.00
2013-1-3,56,41,28,49,38,27,99,91,65,30.27,30.03,20,4,20,0.09
2013-1-4,63,46,38,59,45,38,99,96,68,30.30,30.13,8,1,8,0.02
2013-1-5,50,43,38,49,43,38,99,98,83,30.19,29.56,20,1,20,0.12
2013-1-6,58,48,42,47,45,42,99,87,66,30.19,30.13,17,4,17,0.06
2013-1-7,52,50,46,52,49,45,99,98,95,30.26,30.12,20,6,20,0.17
2013-1-8,56,52,48,55,50,46,99,94,86,30.26,29.98,30,10,30,0.01
2013-1-9,58,46,37,49,43,36,98,90,61,30.03,29.83,29,8,29,0.37
2013-1-10,50,39,35,46,38,35,99,95,81,30.20,30.02,15,4,15,0.28
2013-1-11,62,40,32,52,37,31,99,91,42,30.30,30.06,9,2,9,0.04
2013-1-12,46,35,30,42,34,30,99,95,73,30.30,30.12,6,0,6,0.01
2013-1-13,58,38,28,39,29,24,99,74,30,30.44,30.23,8,2,8,0.00
2013-1-14,64,35,25,40,28,24,98,82,27,30.53,30.43,9,2,9,0.01
2013-1-15,66,38,27,50,31,26,99,81,27,30.57,30.50,8,2,8,0.00
2013-1-16,79,41,27,52,32,23,99,79,14,30.52,30.34,6,1,6,0.01
2013-1-17,86,42,28,49,34,20,99,81,11,30.34,30.16,4,1,5,0.00
2013-1-18,71,40,27,54,36,27,99,86,35,30.24,30.17,8,2,8,0.01
2013-1-19,65,41,26,55,36,26,99,87,39,30.28,30.18,8,2,8,0.00
2013-1-20,73,41,28,47,34,-23,99,84,2,30.26,25.70,4,1,4,0.01
2013-1-21,75,40,26,53,33,25,99,83,22,30.19,30.05,4,1,4,0.01
2013-1-22,74,42,28,51,38,27,99,88,32,30.06,29.88,8,1,8,0.00
2013-1-23,48,44,41,47,43,40,99,98,94,30.16,29.83,13,1,13,0.17
2013-1-24,66,48,36,57,45,36,99,91,62,30.16,30.02,16,4,16,0.06
2013-1-25,54,48,39,53,48,39,99,98,96,30.14,30.00,18,6,18,0.09
2013-1-26,61,44,38,53,43,38,99,94,59,30.13,29.99,11,2,11,0.17
2013-1-27,48,42,37,46,41,25,99,97,86,30.37,30.11,15,3,15,0.83
2013-1-28,51,45,42,48,44,42,99,97,85,30.35,30.16,15,3,15,0.14
2013-1-29,54,46,43,50,45,34,99,95,69,30.54,30.35,10,3,10,0.28
2013-1-30,54,45,39,51,43,38,99,96,78,30.56,30.45,7,1,7,0.01
2013-1-31,69,44,34,55,40,34,99,87,45,30.46,30.31,11,2,11,0.01
2013-2-1,79,46,32,53,39,31,99,83,24,30.32,30.13,8,2,8,0.00
2013-2-2,65,44,31,57,41,31,99,89,54,30.33,30.19,14,2,14,0.00
2013-2-3,56,49,41,48,45,40,98,87,63,30.33,30.21,8,1,8,0.00
2013-2-4,64,45,35,48,41,35,99,88,49,30.22,29.99,20,4,20,0.00
2013-2-5,58,49,42,49,45,41,99,88,68,30.11,29.94,27,9,27,0.27
2013-2-6,55,47,39,48,44,38,99,89,67,30.13,29.89,36,7,36,0.43
2013-2-7,47,39,34,42,38,34,99,96,82,30.10,29.98,16,3,16,0.60
2013-2-8,60,40,30,53,36,30,99,87,48,30.28,30.10,16,2,16,0.01
2013-2-9,61,42,30,46,38,30,99,86,44,30.30,30.00,8,1,8,0.00
2013-2-10,53,44,38,48,41,38,98,93,65,30.30,30.27,7,1,7,0.00
2013-2-11,67,52,44,45,40,31,96,67,30,30.42,30.30,11,3,11,0.01
2013-2-12,60,50,46,54,47,45,98,92,77,30.52,30.42,8,2,8,0.06
2013-2-13,58,48,44,52,46,43,99,93,82,30.50,30.45,8,1,8,0.00
2013-2-14,70,52,38,52,44,38,99,79,39,30.51,30.38,13,2,13,0.01
2013-2-15,80,52,36,52,42,34,99,76,24,30.38,30.18,12,3,12,0.00
2013-2-16,63,48,42,50,44,32,98,87,53,30.32,30.25,16,2,16,0.04
2013-2-17,65,44,32,47,37,30,99,80,32,30.30,30.06,15,2,15,0.01
2013-2-18,51,42,30,43,38,29,99,85,66,30.06,29.72,24,6,24,0.02
2013-2-19,55,42,36,46,39,35,99,89,66,30.02,29.62,14,3,14,0.40
2013-2-20,52,42,35,45,40,35,99,91,71,30.14,30.01,14,3,14,0.17
2013-2-21,48,45,44,44,42,40,97,88,79,30.25,30.22,13,5,13,0.04
2013-2-22,50,45,39,46,44,39,99,95,83,30.25,30.03,35,10,35,0.37
2013-2-23,59,43,36,50,39,35,99,89,49,30.46,30.19,18,3,18,0.18
2013-2-24,56,38,31,46,36,30,99,94,53,30.45,30.17,18,2,18,0.01
2013-2-25,60,45,32,46,40,32,99,84,43,30.42,30.15,21,5,21,0.17
2013-2-26,63,40,28,46,34,28,98,82,30,30.41,30.25,12,2,12,0.00
2013-2-27,61,49,40,51,45,38,99,87,52,30.29,30.21,18,4,18,0.11
2013-2-28,69,53,52,55,52,36,99,97,43,30.49,30.22,23,10,23,0.04
2013-3-1,64,54,48,55,51,43,99,91,68,30.48,30.31,14,3,14,0.01
2013-3-2,57,51,46,52,48,44,99,91,71,30.32,30.21,13,2,13,0.00
2013-3-3,65,45,31,44,37,29,98,78,28,30.28,30.15,16,3,16,0.01
2013-3-4,69,42,28,47,36,28,99,84,40,30.15,29.86,21,4,21,0.00
2013-3-5,46,43,38,44,42,35,99,97,92,29.87,29.57,26,2,26,0.72
2013-3-6,51,44,41,46,43,36,99,94,79,30.02,29.53,27,7,27,0.31
2013-3-7,68,42,31,52,37,30,99,84,33,30.22,29.95,15,2,15,0.01
2013-3-8,66,41,28,50,35,28,99,86,37,30.03,29.99,15,3,15,0.01
2013-3-9,75,49,34,46,40,33,98,76,30,30.48,30.30,14,3,14,0.00
2013-3-10,74,47,31,49,37,27,99,77,20,30.48,30.39,10,2,10,0.01
2013-3-11,74,53,44,53,48,43,99,85,42,30.42,30.24,15,2,15,0.01
2013-3-12,61,50,46,50,47,44,99,90,66,30.24,30.18,11,2,11,0.00
2013-3-13,70,53,47,53,48,46,97,84,47,30.23,30.12,13,3,13,0.00
2013-3-14,67,52,45,50,47,44,98,83,50,30.28,30.07,24,6,24,0.00
2013-3-15,68,54,48,53,49,46,97,85,56,30.48,30.19,12,2,12,0.00
2013-3-16,53,48,44,50,47,43,99,96,85,30.24,30.13,17,4,17,0.41
2013-3-17,64,45,33,46,38,31,99,81,32,30.33,30.23,15,2,15,0.02
2013-3-18,69,44,28,44,36,28,99,79,25,30.28,30.04,14,2,14,0.01
2013-3-19,64,50,42,51,45,36,98,86,44,30.05,29.68,27,5,27,0.48
2013-3-20,56,50,39,52,46,38,98,85,61,30.25,29.65,44,12,44,0.30
2013-3-21,62,44,37,45,38,34,99,84,41,30.38,30.25,13,3,13,0.09
2013-3-22,59,43,31,44,36,30,99,80,36,30.39,30.09,17,3,17,0.05
2013-3-23,62,42,28,41,33,27,98,76,32,30.38,30.13,18,3,18,0.01
2013-3-24,64,45,33,43,36,27,98,76,29,30.42,30.05,13,2,13,0.00
2013-3-25,61,46,34,46,40,33,98,83,52,30.05,29.94,13,2,13,0.00
2013-3-26,72,52,44,49,44,40,97,79,33,29.99,29.91,11,2,11,0.00
2013-3-27,61,52,45,54,48,43,98,87,68,30.22,29.88,21,4,21,0.05
2013-3-28,65,57,50,53,49,47,98,77,55,30.12,30.00,13,4,13,0.00
2013-3-29,74,55,45,57,50,43,98,84,44,30.14,30.07,13,2,13,0.01
2013-3-30,87,57,39,59,46,39,99,74,24,30.10,29.93,20,3,20,0.00
2013-3-31,65,55,49,57,51,35,100,89,68,30.30,29.50,14,3,14,0.01
2013-4-1,60,54,50,52,50,47,97,88,72,30.19,30.02,13,4,13,0.05
2013-4-2,72,54,49,54,48,43,95,83,45,30.22,30.01,13,3,13,0.00
2013-4-3,71,54,46,51,46,40,95,77,48,30.16,29.69,12,2,12,0.01
2013-4-4,57,53,51,53,50,48,91,87,81,29.92,29.69,30,10,30,0.45
2013-4-5,57,53,52,50,48,44,88,83,62,30.00,29.86,36,14,36,0.30
2013-4-6,60,53,50,51,46,34,90,77,43,30.27,29.75,46,14,46,0.30
2013-4-7,59,48,42,50,42,37,91,80,49,30.03,29.75,46,12,46,0.38
2013-4-8,61,48,37,51,30,2,92,60,10,30.30,30.03,16,3,16,0.08
2013-4-9,73,51,37,45,38,31,89,65,28,30.32,30.26,12,2,12,0.00
2013-4-10,60,49,39,50,42,34,87,76,54,30.34,30.26,16,4,16,0.04
2013-4-11,65,50,36,41,29,-3,83,54,10,30.35,30.15,20,4,20,0.00
2013-4-12,66,53,38,43,29,1,86,47,10,30.16,29.97,15,6,15,0.05
2013-4-13,62,48,36,46,25,-4,87,53,10,30.15,30.03,16,4,16,0.08
2013-4-14,59,45,36,40,34,30,88,69,39,30.15,29.95,15,3,15,0.12
2013-4-15,60,47,38,48,24,-2,85,52,10,30.20,29.97,17,4,17,0.24
2013-4-16,66,49,35,44,25,-5,83,47,10,30.41,30.20,17,4,17,0.05
2013-4-17,68,53,44,39,22,2,73,40,12,30.49,30.40,15,4,15,0.00
2013-4-18,70,63,47,68,39,9,100,58,13,30.47,30.40,15,6,15,0.00
2013-4-19,56,53,50,46,44,42,80,73,66,30.34,30.29,20,5,20,0.13
2013-4-20,67,54,48,61,40,2,100,65,12,30.36,30.27,15,4,15,0.04
2013-4-21,76,57,47,76,41,-4,100,63,10,30.31,29.88,13,3,13,0.00
2013-4-22,81,64,43,81,56,0,100,85,10,30.28,30.18,20,6,20,0.00
2013-4-23,80,56,34,40,30,0,89,48,10,30.23,30.11,22,5,22,0.00
2013-4-24,94,60,34,94,53,13,100,80,10,30.15,29.91,15,3,15,0.00
2013-4-25,79,55,35,44,36,20,88,56,11,30.15,29.95,13,3,13,0.00
2013-4-26,78,55,47,44,35,8,80,55,10,30.29,30.14,15,4,15,0.00
2013-4-27,72,55,46,63,28,-3,79,46,10,30.31,30.11,15,4,15,0.00
2013-4-28,72,57,47,67,26,0,86,37,10,30.30,30.06,18,3,18,0.00
2013-4-29,68,55,43,45,21,-10,77,38,10,30.22,30.15,20,5,20,0.09
2013-4-30,67,50,31,67,30,-12,100,61,10,30.38,30.22,23,5,23,0.00
2013-5-1,77,54,31,34,21,1,87,35,15,30.41,30.31,17,4,17,0.00
2013-5-2,86,58,35,75,42,-5,81,60,10,30.45,30.21,23,5,23,0.00
2013-5-3,79,58,37,34,18,-3,71,29,10,30.26,30.05,20,4,20,0.00
2013-5-4,96,69,37,37,26,3,71,28,10,30.32,29.68,15,4,15,0.22
2013-5-5,96,68,53,35,13,-1,20,12,10,29.83,29.58,34,8,34,0.00
2013-5-6,82,61,46,40,25,0,62,31,11,29.96,29.82,15,5,15,0.00
2013-5-7,67,55,52,39,22,0,61,33,10,30.23,29.93,15,6,15,0.19
2013-5-8,73,58,50,44,22,-3,74,31,11,30.17,30.05,15,3,15,0.00
2013-5-9,76,58,51,35,18,-1,53,25,10,30.38,30.10,15,4,15,0.00
2013-5-10,72,56,50,57,22,-1,100,35,10,30.25,30.18,13,3,13,0.00
2013-5-11,87,63,43,87,52,2,100,73,10,30.25,30.05,13,3,13,0.01
2013-5-12,73,61,53,43,24,3,61,31,10,30.14,30.08,22,5,22,0.01
2013-5-13,68,57,46,46,32,4,70,45,10,30.22,30.07,23,6,23,0.00
2013-5-14,71,58,45,70,44,-3,100,70,10,30.21,30.12,20,4,20,0.00
2013-5-15,69,55,41,39,20,0,62,33,10,30.25,29.99,18,4,18,0.04
2013-5-16,68,56,51,45,26,-21,69,39,9,30.01,28.73,18,5,18,0.07
2013-5-17,68,56,44,45,24,-1,72,38,12,30.12,29.99,16,3,16,0.13
2013-5-18,77,53,43,42,27,1,69,44,10,30.32,29.86,26,5,26,0.08
2013-5-19,68,57,48,44,25,-3,71,37,13,30.41,30.30,21,5,21,0.09
2013-5-20,74,57,41,41,22,-3,73,33,10,30.32,29.98,23,4,23,0.00
2013-5-21,60,50,40,39,27,-6,68,45,11,30.14,29.85,23,6,23,0.54
2013-5-22,52,46,39,43,37,29,74,70,61,30.08,30.03,20,6,20,1.02
2013-5-23,63,52,42,42,28,-1,83,50,10,30.06,30.00,21,6,21,0.08
2013-5-24,61,51,43,61,36,6,100,60,15,30.10,30.07,10,2,10,0.02
2013-5-25,68,52,42,68,40,2,100,71,10,30.09,29.95,14,3,14,0.14
2013-5-26,64,57,51,45,22,1,75,33,10,30.08,29.98,21,10,21,0.02
2013-5-27,62,55,52,46,42,26,69,62,27,30.19,29.77,30,10,30,0.54
2013-5-28,67,56,52,60,35,1,100,50,14,29.98,29.73,21,8,21,0.15
2013-5-29,63,56,49,46,28,1,71,41,10,30.09,29.72,33,8,33,0.17
2013-5-30,70,52,32,100,39,-3,100,62,10,30.25,30.08,9,2,9,0.00
2013-5-31,73,57,40,64,23,-2,100,39,10,30.29,30.22,21,4,21,0.00
2013-6-1,76,61,46,40,24,1,66,33,11,30.24,30.06,15,4,15,0.00
2013-6-2,71,60,52,70,45,0,100,67,10,30.06,30.03,21,6,21,0.08
2013-6-3,73,60,45,43,19,0,68,28,10,30.13,29.99,24,5,24,0.00
2013-6-4,77,61,43,77,48,2,100,66,10,30.02,29.86,18,4,18,0.00
2013-6-5,76,60,51,67,42,4,74,57,10,30.08,30.00,20,5,20,0.00
2013-6-6,73,59,50,42,24,1,64,33,10,30.08,30.02,20,6,20,0.00
2013-6-7,81,63,49,41,28,2,64,33,10,30.12,30.07,21,5,21,0.00
2013-6-8,80,64,51,78,43,-1,100,59,10,30.11,30.03,18,5,18,0.00
2013-6-9,72,61,50,53,17,-2,100,26,10,30.04,29.97,26,8,26,0.00
2013-6-10,71,59,42,52,17,-4,100,22,10,30.03,29.94,21,6,21,0.00
2013-6-11,72,59,46,42,16,-2,60,23,11,30.16,30.02,17,4,17,0.00
2013-6-12,70,55,43,42,33,14,67,46,21,30.22,30.14,16,3,16,0.00
2013-6-13,73,58,44,59,22,-1,100,34,10,30.31,30.21,13,3,13,0.05
2013-6-14,64,45,40,38,29,5,66,54,11,30.29,29.96,4,0,4,0.00
2013-6-15,71,61,48,71,54,0,100,84,10,30.06,29.93,10,4,10,0.00
2013-6-16,69,52,42,68,26,3,100,46,10,30.10,30.04,10,2,10,0.00
2013-6-17,74,62,44,43,26,5,66,31,14,30.07,30.02,25,9,25,0.05
2013-6-18,70,57,44,69,30,1,100,45,10,30.03,29.97,25,7,25,0.18
2013-6-19,71,58,51,71,46,2,100,69,10,30.13,29.94,20,4,20,0.04
2013-6-20,74,58,48,67,30,5,100,39,12,30.13,30.06,12,2,12,0.00
2013-6-21,77,62,45,45,20,0,65,27,10,30.14,30.09,16,4,16,0.00
2013-6-22,86,64,46,45,24,6,66,30,10,30.10,29.85,15,3,15,0.00
2013-6-23,72,63,56,52,42,9,68,50,10,29.85,29.63,21,5,21,0.17
2013-6-24,70,59,54,47,35,4,69,46,10,29.73,29.65,23,3,23,0.14
2013-6-25,70,62,57,51,32,6,71,42,10,30.05,29.66,26,11,26,0.48
2013-6-26,78,66,60,75,38,9,100,47,10,30.19,29.83,15,5,15,0.08
2013-6-27,81,67,55,81,39,7,100,49,10,30.14,29.97,17,4,17,0.00
2013-6-28,90,71,53,90,60,7,100,75,11,30.27,30.05,12,2,12,0.00
2013-6-29,94,72,53,49,33,8,69,32,12,30.10,29.94,17,3,17,0.00
2013-6-30,84,69,56,50,32,6,64,35,10,29.97,29.91,13,3,13,0.00
2013-7-1,81,68,55,51,30,7,68,34,10,30.04,29.93,16,4,16,0.00
2013-7-2,78,66,59,48,31,6,65,35,10,30.08,29.98,23,6,23,0.00
2013-7-3,79,67,57,67,48,3,68,53,11,30.11,30.05,21,6,21,0.00
2013-7-4,76,65,50,45,20,3,64,23,10,30.11,30.02,25,6,25,0.00
2013-7-5,78,65,50,40,18,5,57,19,12,30.04,29.93,24,6,24,0.00
2013-7-6,78,64,48,39,15,0,56,18,10,29.95,29.86,25,6,25,0.00
2013-7-7,76,64,58,35,18,2,24,18,10,29.98,29.70,23,6,23,0.00
2013-7-8,78,65,48,38,18,3,57,21,10,30.02,29.97,20,5,20,0.00
2013-7-9,78,62,51,43,29,4,63,36,12,30.08,30.01,22,5,22,0.00
2013-7-10,73,62,53,38,17,-1,51,22,10,30.08,29.97,23,7,23,0.00
2013-7-11,77,62,44,71,23,0,100,31,10,30.03,29.96,20,5,20,0.00
2013-7-12,74,61,45,37,16,0,55,22,10,30.07,29.99,25,5,25,0.00
2013-7-13,86,61,43,70,33,0,100,42,10,30.08,29.99,24,5,24,0.05
2013-7-14,75,61,50,73,35,-2,100,51,10,30.05,29.96,24,6,24,0.00
2013-7-15,74,60,49,72,44,2,100,64,12,29.99,29.79,16,4,16,0.00
2013-7-16,65,56,49,38,19,2,59,29,10,30.04,29.80,15,4,15,0.00
2013-7-17,77,62,49,74,41,-2,100,53,10,30.17,30.04,15,3,15,0.00
2013-7-18,77,61,45,77,48,0,100,70,10,30.17,30.09,17,4,17,0.00
2013-7-19,74,62,55,29,14,1,36,17,10,30.13,30.04,24,7,24,0.00
2013-7-20,75,61,54,32,14,2,42,17,10,30.08,29.94,24,7,24,0.00
2013-7-21,76,63,53,75,46,3,100,63,10,29.96,29.86,21,6,21,0.00
2013-7-22,79,63,52,40,22,1,55,27,10,29.98,29.91,20,6,20,0.00
2013-7-23,72,58,50,42,22,0,64,33,10,30.05,29.95,15,4,15,0.00
2013-7-24,72,57,50,72,39,-1,100,56,10,30.04,29.98,24,4,24,0.00
2013-7-25,78,60,50,38,19,-1,59,28,10,30.04,29.97,20,5,20,0.00
2013-7-26,73,59,50,73,41,-1,100,62,10,30.14,30.02,21,5,21,0.00
2013-7-27,77,62,46,66,24,1,100,32,10,30.14,30.02,25,5,25,0.00
2013-7-28,76,61,49,58,22,0,100,27,11,30.04,29.95,21,4,21,0.00
2013-7-29,76,62,48,71,34,1,100,45,10,30.06,29.94,17,4,17,0.00
2013-7-30,75,63,58,21,6,2,24,11,10,30.13,30.06,15,4,15,0.00
2013-7-31,66,61,58,66,40,3,100,56,10,30.12,30.07,8,2,8,0.00
2013-8-1,76,62,56,47,28,2,65,35,10,30.13,30.07,15,3,15,0.01
2013-8-2,79,66,54,45,27,2,58,28,10,30.12,30.03,20,4,20,0.00
2013-8-3,80,64,55,46,31,2,64,34,11,30.06,29.96,21,5,21,0.00
2013-8-4,75,60,54,42,27,3,60,35,10,30.00,29.94,17,5,17,0.01
2013-8-5,75,60,53,41,24,0,60,33,10,30.00,29.92,16,4,16,0.01
2013-8-6,75,59,52,38,22,0,54,28,10,30.01,29.94,13,3,13,0.00
2013-8-7,65,57,54,46,31,2,67,43,10,30.09,29.99,13,3,13,0.01
2013-8-8,75,61,54,50,34,5,69,42,10,30.07,29.94,15,3,15,0.04
2013-8-9,77,62,55,45,30,5,63,38,11,29.98,29.87,17,4,17,0.00
2013-8-10,69,61,56,54,34,5,72,43,10,30.06,29.95,8,2,8,0.00
2013-8-11,77,63,51,77,51,2,100,70,12,30.06,29.95,15,3,15,0.02
2013-8-12,78,62,50,44,24,2,64,32,10,30.07,30.02,17,4,17,0.00
2013-8-13,84,62,45,44,24,2,68,32,10,30.07,29.95,15,2,15,0.00
2013-8-14,83,66,48,45,26,10,61,29,12,30.13,29.91,23,4,23,0.02
2013-8-15,85,69,62,50,30,8,57,29,10,30.08,29.90,13,2,13,0.02
2013-8-16,86,68,55,44,28,4,50,27,12,30.05,29.93,14,2,14,0.00
2013-8-17,82,66,52,82,52,6,100,69,10,30.08,30.03,14,4,14,0.00
2013-8-18,85,68,53,85,56,6,100,71,10,30.08,30.01,17,4,17,0.00
2013-8-19,84,67,58,75,35,5,100,41,10,30.08,30.01,23,5,23,0.00
2013-8-20,75,55,49,74,34,0,100,51,10,30.05,29.92,9,1,9,0.00
2013-8-21,85,64,45,36,21,2,59,24,10,29.94,29.84,11,2,11,0.00
2013-8-22,69,60,53,48,43,30,70,54,40,30.07,29.88,10,3,10,0.01
2013-8-23,78,64,53,50,30,4,74,37,11,29.98,29.88,10,2,10,0.00
2013-8-24,78,62,52,72,37,5,100,48,10,30.02,29.84,15,3,15,0.00
2013-8-25,67,58,50,48,37,7,68,48,10,29.92,29.87,7,1,7,0.01
2013-8-26,81,66,51,81,56,8,100,77,10,29.93,29.88,33,6,33,0.00
2013-8-27,85,68,60,46,32,10,57,32,10,29.91,29.80,20,3,20,0.02
2013-8-28,83,67,56,55,32,11,68,36,10,29.87,29.79,21,4,21,0.00
2013-8-29,72,65,61,54,50,16,69,59,16,30.06,29.80,23,4,23,0.01
2013-8-30,85,69,57,64,51,10,75,57,10,30.09,29.95,14,3,14,0.05
2013-8-31,75,61,56,54,44,14,75,58,10,30.01,29.88,14,4,14,0.00
2013-9-1,87,68,55,54,40,16,72,45,10,29.91,29.77,24,7,24,0.00
2013-9-2,86,67,53,55,46,8,71,51,5,31.75,29.83,27,7,27,0.00
2013-9-3,81,62,50,51,41,17,73,52,10,29.99,29.91,23,4,23,0.00
2013-9-4,63,57,54,48,46,44,72,68,50,30.03,29.97,2,0,2,0.00
2013-9-5,69,63,59,54,51,48,72,66,49,30.11,29.99,6,2,6,0.00
2013-9-6,82,66,55,60,46,26,78,54,13,30.15,30.05,15,3,15,0.00
2013-9-7,84,64,51,60,47,40,80,58,22,30.05,29.90,15,3,15,0.00
2013-9-8,83,67,59,57,51,46,77,61,29,29.99,29.90,15,4,15,0.00
2013-9-9,85,67,55,54,49,42,77,57,23,29.95,29.83,14,4,14,0.00
2013-9-10,82,64,53,57,47,37,78,59,21,29.85,29.68,13,4,82,0.00
2013-9-11,75,63,57,54,51,49,77,67,44,29.96,29.82,21,4,21,0.00
2013-9-12,72,64,60,54,52,48,78,67,47,29.97,29.85,10,2,10,0.00
2013-9-13,72,63,59,100,53,45,100,67,47,30.08,29.83,13,3,13,0.00
2013-9-14,68,57,58,100,55,49,100,73,57,29.78,29.76,11,3,11,0.00
2013-9-15,67,61,58,54,50,46,78,67,49,29.89,29.74,22,4,22,0.00
2013-9-16,83,64,57,52,48,36,75,59,21,29.96,29.85,13,2,13,0.00
2013-9-17,77,62,52,52,48,32,75,61,20,30.03,29.84,13,4,13,0.00
2013-9-18,80,60,49,53,44,30,79,60,18,30.06,29.93,16,3,16,0.00
2013-9-19,83,57,42,52,41,34,84,59,21,30.02,29.78,13,2,13,0.00
2013-9-20,64,55,45,54,46,37,81,73,48,29.78,29.63,18,2,18,0.00
2013-9-21,71,59,52,54,48,43,78,67,45,29.82,29.64,21,4,21,0.00
2013-9-22,64,58,53,54,50,46,81,74,53,29.90,29.73,30,8,30,0.00
2013-9-23,71,60,53,49,30,4,80,43,10,29.99,29.89,17,4,17,0.00
2013-9-24,68,57,47,46,31,4,70,44,10,29.96,29.88,21,5,21,0.00
2013-9-25,68,52,44,46,37,30,85,58,30,30.05,29.88,15,3,15,0.00
2013-9-26,74,53,41,48,27,8,86,47,10,30.17,30.03,13,2,13,0.00
2013-9-27,60,49,39,46,34,22,75,55,34,30.18,29.99,13,3,13,0.00
2013-9-28,64,60,54,64,32,5,100,39,10,29.99,29.60,46,20,46,1.61
2013-9-29,63,58,54,46,37,14,61,45,19,29.75,29.55,47,21,47,3.91
2013-9-30,66,56,50,40,16,-2,68,24,10,30.02,29.73,21,6,21,0.09
2013-10-1,72,54,41,51,41,26,85,64,32,30.18,30.00,14,3,14,0.01
2013-10-2,65,47,35,46,30,0,81,55,14,30.19,30.09,15,2,15,0.31
2013-10-3,73,52,41,42,20,-11,77,33,10,30.34,30.19,12,2,12,0.01
2013-10-4,84,52,36,32,5,-15,53,17,10,30.35,30.23,12,2,12,0.00
2013-10-5,86,55,40,39,15,-12,65,25,10,30.23,30.07,10,2,10,0.00
2013-10-6,81,53,37,55,16,-15,100,34,10,30.07,29.98,29,4,29,0.01
2013-10-7,72,56,45,72,44,-1,100,80,10,30.16,30.00,13,2,13,0.18
2013-10-8,59,51,44,49,28,-6,100,55,10,30.17,29.99,12,2,12,0.18
2013-10-9,73,52,40,45,7,-8,100,22,10,30.00,29.93,12,2,12,0.01
2013-10-10,74,56,41,74,51,-8,100,92,10,30.07,29.93,15,3,15,0.00
2013-10-11,70,53,44,70,53,44,100,100,100,30.10,30.06,14,2,14,0.00
2013-10-12,68,50,42,47,11,-10,100,26,10,30.10,30.02,12,1,12,0.04
2013-10-13,73,49,35,72,25,-16,100,51,10,30.22,29.73,14,2,14,0.01
2013-10-14,78,50,36,78,26,-14,100,50,10,30.25,30.17,7,2,7,0.01
2013-10-15,82,52,36,81,33,-16,100,59,10,30.18,30.03,10,2,10,0.01
2013-10-16,78,50,37,41,14,-13,100,28,10,30.11,30.02,13,2,13,0.00
2013-10-17,76,54,42,63,23,-6,100,44,10,30.32,30.05,9,2,9,0.01
2013-10-18,84,54,38,43,25,-10,100,47,10,30.34,29.98,9,2,9,0.00
2013-10-19,76,51,39,52,3,-13,100,21,10,30.11,30.01,10,2,10,0.01
2013-10-20,70,53,48,52,17,-5,100,40,10,30.08,29.99,10,2,10,0.00
2013-10-21,66,52,46,46,-1,-8,100,14,10,30.00,29.93,10,2,10,0.01
2013-10-22,56,52,50,0,-3,-5,12,10,10,30.00,29.96,6,1,6,0.01
2013-10-23,56,51,48,2,-4,-6,13,10,10,29.99,29.93,7,1,7,0.02
2013-10-24,55,52,50,52,12,-7,100,34,10,30.08,29.95,8,1,8,0.13
2013-10-25,58,53,51,52,14,-4,100,37,10,30.18,30.08,7,1,7,0.01
2013-10-26,69,54,45,46,3,-8,100,17,10,30.17,30.14,12,2,12,0.01
2013-10-27,59,52,44,59,52,44,100,100,100,30.08,29.80,18,3,18,0.01
2013-10-28,70,50,37,70,40,-10,100,83,10,29.82,29.70,10,2,10,0.01
2013-10-29,68,43,31,43,5,-18,100,29,11,30.03,29.82,10,2,10,0.00
2013-10-30,69,44,30,53,28,-18,74,53,13,30.17,30.03,8,1,8,0.00
2013-10-31,65,54,44,65,48,30,100,84,56,30.20,30.15,9,1,9,0.02
2013-11-1,78,54,42,53,34,-6,100,68,10,30.19,29.92,9,2,9,0.01
2013-11-2,67,52,42,67,52,42,100,100,100,30.15,29.83,21,6,21,0.02
2013-11-3,59,46,38,59,40,-12,100,89,10,30.21,30.14,8,1,8,0.24
2013-11-4,52,47,39,52,47,39,100,100,100,30.17,29.94,10,2,10,0.13
2013-11-5,60,54,51,60,41,-5,100,78,10,30.23,29.99,15,5,15,0.30
2013-11-6,66,57,54,29,5,-1,36,13,10,30.24,30.09,8,2,8,0.02
2013-11-7,59,53,44,59,36,-1,100,73,10,30.15,29.98,31,6,31,0.72
2013-11-8,65,48,37,45,15,-10,100,42,10,30.18,30.03,10,2,10,0.01
2013-11-9,64,48,36,64,44,-8,100,94,10,30.04,29.94,6,1,6,0.01
2013-11-10,73,51,39,56,33,-7,100,71,10,30.02,29.96,13,2,13,0.00
2013-11-11,70,53,43,49,26,-6,100,51,10,30.02,29.92,6,1,6,0.01
2013-11-12,71,56,51,59,19,-2,100,39,10,30.38,29.99,12,2,12,0.12
2013-11-13,74,52,38,52,20,-10,100,45,10,30.40,30.22,13,2,13,0.01
2013-11-14,56,45,36,50,14,-12,100,45,10,30.24,30.07,6,1,6,0.05
2013-11-15,56,48,44,50,33,-7,100,75,10,30.07,29.73,14,3,14,0.02
2013-11-16,60,51,46,60,51,46,100,100,100,29.92,29.68,17,4,17,0.05
2013-11-17,61,50,44,60,50,44,100,100,100,30.02,29.96,15,3,15,0.05
2013-11-18,56,51,44,56,51,44,100,100,100,29.98,29.74,26,6,26,0.52
2013-11-19,57,52,43,57,52,42,100,100,100,29.93,29.74,29,9,29,0.52
2013-11-20,59,42,28,43,20,-6,100,54,16,30.22,29.93,9,2,9,0.00
2013-11-21,68,37,25,24,9,-21,84,41,10,30.40,30.07,10,2,10,0.01
2013-11-22,70,41,26,36,15,-23,69,39,10,30.40,30.17,8,2,8,0.00
2013-11-23,82,45,29,29,14,-19,73,36,10,30.17,29.97,13,2,13,0.00
2013-11-24,76,42,28,76,21,-22,100,60,10,30.20,29.95,10,1,10,0.00
2013-11-25,71,41,28,44,8,-22,100,33,10,30.27,30.19,8,1,8,0.00
2013-11-26,68,43,30,68,26,-11,100,65,13,30.21,29.96,5,1,5,0.00
2013-11-27,77,44,31,32,0,-9,46,17,13,29.96,29.82,4,1,4,0.01
2013-11-28,78,45,32,41,-4,-17,100,16,10,30.12,29.89,8,1,8,0.00
2013-11-29,65,44,29,53,11,-21,100,35,10,30.30,30.06,8,1,8,0.06
2013-11-30,65,48,40,65,38,15,100,76,35,30.36,30.28,8,1,8,0.01
2013-12-1,56,53,50,56,53,47,100,100,100,30.33,29.85,25,9,25,0.08
2013-12-2,54,46,33,53,35,-11,100,79,10,30.12,29.97,29,7,29,0.85
2013-12-3,57,37,29,57,33,-14,100,90,12,30.15,30.04,8,1,8,0.91
2013-12-4,57,32,23,57,20,-22,100,75,10,30.25,30.15,7,1,7,0.01
2013-12-5,54,31,20,54,14,-19,100,58,10,30.33,30.05,9,2,9,0.89
2013-12-6,52,37,31,52,25,2,100,72,22,30.06,29.77,17,3,17,0.24
2013-12-7,47,30,21,47,26,0,100,88,27,30.32,29.96,9,1,9,0.00
2013-12-8,53,30,18,53,30,18,100,100,100,30.52,30.10,8,2,8,0.00
2013-12-9,60,32,19,60,8,-29,100,47,10,30.52,30.43,7,2,7,0.90
2013-12-10,53,32,22,7,-4,-25,50,22,12,30.46,30.18,5,1,5,0.00
2013-12-11,68,35,24,68,10,-17,100,41,13,30.28,29.83,4,1,4,0.00
2013-12-12,48,35,25,40,-6,-19,100,20,11,30.20,30.08,15,1,15,0.25
2013-12-13,61,45,38,50,14,-12,100,41,10,30.35,30.19,5,1,5,0.01
2013-12-14,54,41,32,43,12,-15,100,40,11,30.41,30.33,8,2,8,0.00
2013-12-15,69,44,34,43,24,-6,100,62,12,30.42,30.34,8,1,8,0.01
2013-12-16,72,44,30,50,10,-16,100,34,10,30.36,30.10,10,2,10,0.01
2013-12-17,63,42,29,43,7,-21,100,31,10,30.17,30.06,8,2,8,0.00
2013-12-18,50,44,40,41,8,-12,100,40,10,30.13,30.00,15,2,15,0.00
2013-12-19,59,37,27,18,-6,-21,53,17,10,30.24,30.09,10,2,10,0.01
2013-12-20,50,41,30,50,14,-6,100,41,20,30.19,29.98,14,3,14,0.51
2013-12-21,59,49,45,59,49,45,100,100,100,30.24,30.03,6,2,6,0.08
2013-12-22,66,49,44,66,49,44,100,100,100,30.40,30.23,8,1,8,0.01
2013-12-23,53,47,42,53,47,42,100,100,100,30.47,30.32,7,1,7,0.04
2013-12-24,68,44,32,46,26,-11,100,63,13,30.49,30.32,10,2,10,0.01
2013-12-25,69,40,29,24,11,-16,71,39,10,30.35,30.24,6,1,6,0.00
2013-12-26,74,41,29,32,-2,-21,56,18,10,30.26,30.12,4,1,4,0.01
2013-12-27,58,39,31,50,8,-8,100,37,13,30.30,30.11,17,2,17,0.00
2013-12-28,69,44,32,48,-2,-18,100,17,10,30.40,30.30,8,2,8,0.00
2013-12-29,65,41,29,31,6,-20,67,27,10,30.34,30.12,6,2,6,0.00
2013-12-30,56,39,32,38,6,-15,65,29,10,30.19,30.11,5,1,4,0.00
2013-12-31,63,40,33,63,15,-16,100,51,11,30.27,30.19,10,1,10,0.00
2014-1-1,60,40,30,42,2,-18,100,29,10,30.25,30.09,6,1,6,0.00
2014-1-2,62,42,32,26,10,-11,26,26,12,30.16,30.06,4,1,4,0.00